Date,TemperatureHighF,TemperatureAvgF,TemperatureLowF,DewpointHighF,DewpointAvgF,DewpointLowF,HumidityHigh,HumidityAvg,HumidityLow,PressureMaxIn,PressureMinIn,WindSpeedMaxMPH,WindSpeedAvgMPH,GustSpeedMaxMPH,PrecipitationSumIn
2013-1-1,27.4,23.7,17.6,19.0,16.1,11.5,78,73,68,30.26,30.10,7,2,7,0.00
2013-1-2,27.7,23.3,18.4,16.7,14.2,9.8,73,68,62,30.30,30.24,6,2,8,0.00
2013-1-3,22.1,17.6,12.6,13.5,10.0,6.4,77,72,67,30.24,30.08,3,0,3,0.00
2013-1-4,26.6,18.6,10.4,18.5,11.8,4.9,79,75,70,30.16,30.10,5,1,5,0.00
2013-1-5,28.3,22.8,16.7,21.4,16.8,11.4,81,78,74,30.15,29.96,4,1,5,0.00
2013-1-6,31.7,27.7,23.2,25.7,22.3,18.3,83,80,77,29.96,29.81,6,1,10,0.00
2013-1-7,35.5,31.3,28.4,28.6,24.7,22.3,79,76,73,29.82,29.54,6,1,10,0.00
2013-1-8,43.0,38.0,35.1,31.3,29.2,26.6,77,71,58,29.79,29.55,7,2,7,0.00
2013-1-9,41.6,39.0,34.9,35.3,33.2,28.7,89,80,67,29.79,29.50,6,2,9,0.39
2013-1-10,37.6,31.9,22.7,32.4,27.6,16.6,88,84,76,29.64,29.50,5,1,6,0.29
2013-1-11,24.5,20.0,13.3,16.6,13.1,7.0,82,74,64,29.97,29.64,5,1,5,0.00
2013-1-12,19.1,13.1,6.8,11.0,6.5,0.8,79,74,69,30.02,29.95,5,1,7,0.00
2013-1-13,19.8,12.1,7.6,11.4,5.5,1.8,79,75,68,30.10,30.00,5,1,6,0.02
2013-1-14,21.2,15.0,9.0,14.4,9.0,3.2,80,77,73,30.13,30.03,10,1,10,0.02
2013-1-15,31.3,23.7,19.3,24.1,18.2,14.2,83,79,73,30.27,30.14,9,2,9,0.00
2013-1-16,24.3,18.6,14.4,18.9,14.0,10.7,86,82,78,30.30,30.25,8,1,11,0.00
2013-1-17,24.1,17.3,10.8,18.9,12.7,6.0,86,82,78,30.31,30.10,5,1,8,0.00
2013-1-18,35.3,23.3,13.5,27.5,17.9,9.3,86,80,73,30.12,29.95,6,1,8,0.00
2013-1-19,36.2,27.2,21.1,26.3,20.3,15.4,80,75,64,30.18,30.07,6,1,7,0.00
2013-1-20,36.0,27.4,19.8,26.5,20.1,14.6,82,74,66,30.20,30.12,5,1,6,0.00
2013-1-21,31.0,24.3,15.5,23.3,17.4,9.6,79,75,71,30.13,29.98,4,0,6,0.00
2013-1-22,28.3,21.1,11.9,20.7,14.7,6.8,81,76,72,30.07,29.94,4,0,4,0.00
2013-1-23,31.5,25.3,19.1,23.7,18.5,13.9,82,76,67,29.97,29.79,6,1,7,0.00
2013-1-24,45.2,37.3,30.6,34.2,27.7,23.2,86,69,53,29.99,29.79,7,2,9,0.00
2013-1-25,43.2,36.6,32.0,34.2,29.5,24.8,82,75,69,29.97,29.74,6,1,9,0.02
2013-1-26,40.3,36.5,32.8,34.7,32.0,29.3,89,84,76,29.76,29.66,5,1,8,0.06
2013-1-27,40.0,33.3,28.8,29.7,25.9,23.1,83,74,58,29.75,29.69,8,2,10,0.00
2013-1-28,39.1,32.0,27.4,26.4,23.4,21.1,80,71,54,29.73,29.60,8,3,11,0.00
2013-1-29,36.0,31.0,27.7,28.0,25.2,23.8,86,79,70,29.92,29.62,4,1,6,0.15
2013-1-30,42.5,34.9,28.1,33.7,28.5,23.8,87,78,68,29.94,29.84,14,2,15,0.00
2013-1-31,44.8,41.5,39.2,34.8,32.0,30.2,71,69,64,30.01,29.92,8,2,13,0.00